createdAt,value
2023-05-20T00:01:32.185Z,7.57
2023-05-20T00:07:35.621Z,7.03
2023-05-20T00:13:39.432Z,8.05
2023-05-20T00:19:45.140Z,6.97
2023-05-20T00:25:48.693Z,7.95
2023-05-20T00:31:52.328Z,6.93
2023-05-20T00:37:57.618Z,7.97
2023-05-20T00:44:02.103Z,8.32
2023-05-20T00:50:05.871Z,8.48
2023-05-20T00:56:10.982Z,8.65
2023-05-20T01:02:14.744Z,7.90
2023-05-20T01:08:19.134Z,7.88
2023-05-20T01:14:26.016Z,8.50
2023-05-20T01:20:30.162Z,8.77
2023-05-20T01:26:38.497Z,8.50
2023-05-20T01:32:45.190Z,8.15
2023-05-20T01:38:49.470Z,8.30
2023-05-20T01:44:55.534Z,7.57
2023-05-20T01:50:58.990Z,7.88
2023-05-20T01:57:03.061Z,7.97
2023-05-20T02:03:07.935Z,7.68
2023-05-20T02:09:11.854Z,8.20
2023-05-20T02:15:15.762Z,7.10
2023-05-20T02:21:20.674Z,7.18
2023-05-20T02:27:24.101Z,7.45
2023-05-20T02:33:29.135Z,6.38
2023-05-20T02:39:34.090Z,6.70
2023-05-20T02:45:37.561Z,6.18
2023-05-20T02:51:41.955Z,6.15
2023-05-20T02:57:46.942Z,5.70
2023-05-20T03:03:50.791Z,5.53
2023-05-20T03:09:54.449Z,5.40
2023-05-20T03:16:01.576Z,5.45
2023-05-20T03:22:05.153Z,5.18
2023-05-20T03:28:08.534Z,5.35
2023-05-20T03:34:13.316Z,4.32
2023-05-20T03:40:16.997Z,5.13
2023-05-20T03:46:20.462Z,5.05
2023-05-20T03:52:25.660Z,4.95
2023-05-20T03:58:31.286Z,4.50
2023-05-20T04:04:34.763Z,4.53
2023-05-20T04:10:39.581Z,5.32
2023-05-20T04:16:43.649Z,4.95
2023-05-20T04:22:48.314Z,5.03
2023-05-20T04:28:53.235Z,4.43
2023-05-20T04:34:57.421Z,4.80
2023-05-20T04:41:01.636Z,4.40
2023-05-20T04:47:08.027Z,4.70
2023-05-20T04:53:11.618Z,4.25
2023-05-20T04:59:15.202Z,4.25
2023-05-20T05:05:20.242Z,5.10
2023-05-20T05:11:23.736Z,4.70
2023-05-20T05:17:29.076Z,4.47
2023-05-20T05:23:35.378Z,4.80
2023-05-20T05:29:38.846Z,4.90
2023-05-20T05:35:42.960Z,4.97
2023-05-20T05:41:47.837Z,4.57
2023-05-20T05:47:51.433Z,4.70
2023-05-20T05:53:54.981Z,4.72
2023-05-20T05:59:59.958Z,4.28
2023-05-20T06:06:03.453Z,4.68
2023-05-20T06:12:07.090Z,4.47
2023-05-20T06:18:12.162Z,4.78
2023-05-20T06:24:16.075Z,4.72
2023-05-20T06:30:19.700Z,4.75
2023-05-20T06:36:24.726Z,4.95
2023-05-20T06:42:28.232Z,4.75
2023-05-20T06:48:31.700Z,4.50
2023-05-20T06:54:40.131Z,5.22
2023-05-20T07:00:43.622Z,4.90
2023-05-20T07:06:47.004Z,4.85
2023-05-20T07:12:51.803Z,4.47
2023-05-20T07:18:55.300Z,5.03
2023-05-20T07:24:59.574Z,4.32
2023-05-20T07:31:04.522Z,4.43
2023-05-20T07:37:10.121Z,5.00
2023-05-20T07:43:13.651Z,5.03
2023-05-20T07:49:18.506Z,4.57
2023-05-20T07:55:22.332Z,4.25
2023-05-20T08:01:26.077Z,4.78
2023-05-20T08:07:30.874Z,4.63
2023-05-20T08:13:35.132Z,4.35
2023-05-20T08:19:38.672Z,4.18
2023-05-20T08:25:43.906Z,3.95
2023-05-20T08:31:47.312Z,3.95
2023-05-20T08:37:51.325Z,4.00
2023-05-20T08:43:58.870Z,3.65
2023-05-20T08:50:03.354Z,3.70
2023-05-20T08:56:07.811Z,3.72
2023-05-20T09:02:13.335Z,3.75
2023-05-20T09:08:16.877Z,4.20
2023-05-20T09:14:20.746Z,4.03
2023-05-20T09:20:25.678Z,4.25
2023-05-20T09:26:30.033Z,3.40
2023-05-20T09:32:33.572Z,4.05
2023-05-20T09:38:39.847Z,3.70
2023-05-20T09:44:45.306Z,4.00
2023-05-20T09:50:48.843Z,3.25
2023-05-20T09:56:53.924Z,3.70
2023-05-20T10:02:57.511Z,3.78
2023-05-20T10:09:07.495Z,3.63
2023-05-20T10:15:18.528Z,3.10
2023-05-20T10:21:24.667Z,2.85
2023-05-20T10:27:29.278Z,3.28
2023-05-20T10:33:43.262Z,3.00
2023-05-20T10:39:46.948Z,3.30
2023-05-20T10:45:51.308Z,3.40
2023-05-20T10:51:56.234Z,3.58
2023-05-20T10:57:59.922Z,4.28
2023-05-20T11:04:05.514Z,4.45
2023-05-20T11:10:11.909Z,4.80
2023-05-20T11:16:15.414Z,3.80
2023-05-20T11:22:18.839Z,4.10
2023-05-20T11:28:23.667Z,4.50
2023-05-20T11:34:28.758Z,4.13
2023-05-20T11:40:46.335Z,3.95
2023-05-20T11:47:00.939Z,4.30
2023-05-20T11:53:05.156Z,4.20
2023-05-20T11:59:09.214Z,3.97
2023-05-20T12:05:14.463Z,4.45
2023-05-20T12:11:18.173Z,4.32
2023-05-20T12:17:21.845Z,3.60
2023-05-20T12:23:26.876Z,4.10
2023-05-20T12:29:30.350Z,3.33
2023-05-20T12:35:39.059Z,3.00
2023-05-20T12:41:43.864Z,3.25
2023-05-20T12:47:48.449Z,3.40
2023-05-20T12:53:52.045Z,2.88
2023-05-20T12:59:56.952Z,3.28
2023-05-20T13:06:00.529Z,3.00
2023-05-20T13:12:04.054Z,3.00
2023-05-20T13:18:10.467Z,2.58
2023-05-20T13:24:14.013Z,2.45
2023-05-20T13:30:17.590Z,2.53
2023-05-20T13:36:22.537Z,2.53
2023-05-20T13:42:26.123Z,2.63
2023-05-20T13:48:30.357Z,3.15
2023-05-20T13:54:35.185Z,2.65
2023-05-20T14:00:38.748Z,2.80
2023-05-20T14:06:42.287Z,2.75
2023-05-20T14:12:48.247Z,3.50
2023-05-20T14:18:51.998Z,3.20
2023-05-20T14:24:55.699Z,3.05
2023-05-20T14:31:00.489Z,2.88
2023-05-20T14:37:09.829Z,3.10
2023-05-20T14:43:13.367Z,3.15
2023-05-20T14:49:18.227Z,2.80
2023-05-20T14:55:21.825Z,2.95
2023-05-20T15:01:26.158Z,3.42
2023-05-20T15:07:31.576Z,3.05
2023-05-20T15:13:36.227Z,2.65
2023-05-20T15:19:41.788Z,3.00
2023-05-20T15:25:48.556Z,2.85
2023-05-20T15:31:55.449Z,2.50
2023-05-20T15:37:59.155Z,2.47
2023-05-20T15:44:04.062Z,2.50
2023-05-20T15:50:08.795Z,2.38
2023-05-20T15:56:13.135Z,2.88
2023-05-20T16:02:18.170Z,3.00
2023-05-20T16:08:23.905Z,3.17
2023-05-20T16:14:27.406Z,2.80
2023-05-20T16:20:32.388Z,2.88
2023-05-20T16:26:36.065Z,3.03
2023-05-20T16:32:39.802Z,2.83
2023-05-20T16:38:44.632Z,3.47
2023-05-20T16:44:48.657Z,3.35
2023-05-20T16:50:53.660Z,2.80
2023-05-20T17:02:55.016Z,2.80
2023-05-20T17:08:59.595Z,3.33
2023-05-20T17:15:03.055Z,2.88
2023-05-20T17:21:07.975Z,3.35
2023-05-20T17:27:11.435Z,3.33
2023-05-20T17:33:15.422Z,3.38
2023-05-20T17:39:20.736Z,2.83
2023-05-20T17:45:24.191Z,2.80
2023-05-20T17:51:27.784Z,2.97
2023-05-20T17:57:32.614Z,3.42
2023-05-20T18:03:37.643Z,3.13
2023-05-20T18:09:41.276Z,3.33
2023-05-20T18:15:47.085Z,3.50
2023-05-20T18:21:50.608Z,2.75
2023-05-20T18:27:54.703Z,3.33
2023-05-20T18:33:59.580Z,3.00
2023-05-20T18:40:03.183Z,3.15
2023-05-20T18:46:06.702Z,3.15
2023-05-20T18:52:11.632Z,3.33
2023-05-20T18:58:15.588Z,2.92
2023-05-20T19:04:19.062Z,3.38
2023-05-20T19:10:24.394Z,2.60
2023-05-20T19:16:28.312Z,3.20
2023-05-20T19:22:31.885Z,3.88
2023-05-20T19:28:36.744Z,3.60
2023-05-20T19:34:40.764Z,3.85
2023-05-20T19:40:45.206Z,3.35
2023-05-20T19:46:50.398Z,2.90
2023-05-20T19:52:53.957Z,3.63
2023-05-20T19:59:01.727Z,3.38
2023-05-20T20:05:07.425Z,3.20
2023-05-20T20:11:10.997Z,3.20
2023-05-20T20:17:16.856Z,3.33
2023-05-20T20:23:21.759Z,3.25
2023-05-20T20:29:25.753Z,3.10
2023-05-20T20:35:29.201Z,3.65
2023-05-20T20:41:34.541Z,3.40
2023-05-20T20:47:38.747Z,3.85
2023-05-20T20:53:43.054Z,4.25
2023-05-20T20:59:48.682Z,3.78
2023-05-20T21:05:52.150Z,4.00
2023-05-20T21:11:57.459Z,4.13
2023-05-20T21:18:02.362Z,4.07
2023-05-20T21:24:05.945Z,4.70
2023-05-20T21:30:10.166Z,4.53
2023-05-20T21:36:15.150Z,4.28
2023-05-20T21:42:18.556Z,4.60
2023-05-20T21:48:22.782Z,5.03
2023-05-20T21:54:27.563Z,4.80
2023-05-20T22:00:31.207Z,4.80
2023-05-20T22:06:36.288Z,5.03
2023-05-20T22:12:42.471Z,4.93
2023-05-20T22:18:47.833Z,5.40
2023-05-20T22:24:51.620Z,5.40
2023-05-20T22:30:56.565Z,5.43
2023-05-20T22:37:00.050Z,5.65
2023-05-20T22:43:03.500Z,5.90
2023-05-20T22:49:10.297Z,6.25
2023-05-20T22:55:14.596Z,6.20
2023-05-20T23:01:18.631Z,5.78
2023-05-20T23:07:24.001Z,6.20
2023-05-20T23:13:28.158Z,6.38
2023-05-20T23:19:31.830Z,7.13
2023-05-20T23:25:36.963Z,6.22
2023-05-20T23:31:40.819Z,7.03
2023-05-20T23:37:44.342Z,7.00
2023-05-20T23:43:49.182Z,7.30
2023-05-20T23:49:53.434Z,6.95
2023-05-20T23:55:59.475Z,6.43
